createdAt,value
2023-04-16T00:02:04.140Z,8.98
2023-04-16T00:04:31.507Z,5.60
2023-04-16T00:06:58.726Z,7.03
2023-04-16T00:09:26.170Z,7.72
2023-04-16T00:11:53.354Z,7.13
2023-04-16T00:14:20.500Z,6.18
2023-04-16T00:16:47.739Z,8.07
2023-04-16T00:19:14.996Z,7.18
2023-04-16T00:21:42.175Z,9.07
2023-04-16T00:24:09.564Z,8.00
2023-04-16T00:26:36.814Z,7.47
2023-04-16T00:29:04.012Z,6.57
2023-04-16T00:31:32.153Z,5.25
2023-04-16T00:33:59.568Z,7.38
2023-04-16T00:36:27.874Z,5.68
2023-04-16T00:38:55.472Z,6.05
2023-04-16T00:41:23.167Z,7.30
2023-04-16T00:43:50.803Z,7.63
2023-04-16T00:46:19.885Z,6.30
2023-04-16T00:48:47.248Z,4.15
2023-04-16T00:51:14.461Z,5.38
2023-04-16T00:53:41.805Z,5.80
2023-04-16T00:56:09.877Z,7.15
2023-04-16T00:58:37.155Z,6.72
2023-04-16T01:01:04.436Z,4.28
2023-04-16T01:03:38.333Z,6.47
2023-04-16T01:06:05.973Z,6.43
2023-04-16T01:08:33.075Z,7.38
2023-04-16T01:11:00.331Z,6.07
2023-04-16T01:13:27.529Z,6.22
2023-04-16T01:15:54.728Z,6.05
2023-04-16T01:18:22.774Z,5.10
2023-04-16T01:20:50.442Z,5.28
2023-04-16T01:23:20.779Z,5.75
2023-04-16T01:25:47.992Z,6.20
2023-04-16T01:28:15.702Z,8.15
2023-04-16T01:30:42.906Z,6.10
2023-04-16T01:33:11.890Z,8.52
2023-04-16T01:35:39.409Z,7.22
2023-04-16T01:38:07.790Z,9.75
2023-04-16T01:40:38.488Z,9.13
2023-04-16T01:43:05.725Z,7.70
2023-04-16T01:45:33.235Z,8.10
2023-04-16T01:48:00.578Z,7.82
2023-04-16T01:50:27.834Z,8.80
2023-04-16T01:52:54.990Z,9.35
2023-04-16T01:55:22.325Z,9.88
2023-04-16T01:57:49.530Z,7.22
2023-04-16T02:00:16.872Z,11.13
2023-04-16T02:02:44.157Z,8.35
2023-04-16T02:05:11.389Z,6.93
2023-04-16T02:07:38.562Z,9.30
2023-04-16T02:10:07.109Z,8.98
2023-04-16T02:12:34.312Z,8.52
2023-04-16T02:15:01.474Z,8.32
2023-04-16T02:17:28.626Z,8.77
2023-04-16T02:19:55.731Z,7.18
2023-04-16T02:22:22.963Z,6.95
2023-04-16T02:24:51.223Z,7.28
2023-04-16T02:27:18.370Z,10.60
2023-04-16T02:29:45.813Z,9.18
2023-04-16T02:32:13.146Z,8.23
2023-04-16T02:34:40.430Z,9.25
2023-04-16T02:37:08.359Z,9.90
2023-04-16T02:39:35.580Z,9.00
2023-04-16T02:42:02.909Z,8.05
2023-04-16T02:44:30.219Z,10.90
2023-04-16T02:46:57.394Z,9.82
2023-04-16T02:49:24.605Z,9.88
2023-04-16T02:51:51.906Z,10.55
2023-04-16T02:54:19.067Z,8.20
2023-04-16T02:56:46.462Z,9.25
2023-04-16T02:59:13.687Z,9.65
2023-04-16T03:01:40.980Z,8.63
2023-04-16T03:04:08.264Z,8.80
2023-04-16T03:06:35.607Z,8.23
2023-04-16T03:09:02.743Z,7.88
2023-04-16T03:11:29.902Z,7.35
2023-04-16T03:13:57.149Z,9.10
2023-04-16T03:16:24.304Z,9.95
2023-04-16T03:18:51.544Z,7.18
2023-04-16T03:21:18.801Z,8.13
2023-04-16T03:23:45.974Z,7.65
2023-04-16T03:26:13.152Z,11.10
2023-04-16T03:28:40.321Z,11.93
2023-04-16T03:31:07.608Z,8.07
2023-04-16T03:33:34.942Z,8.55
2023-04-16T03:36:02.183Z,10.25
2023-04-16T03:38:29.376Z,11.45
2023-04-16T03:40:56.570Z,6.95
2023-04-16T03:43:23.865Z,8.13
2023-04-16T03:45:51.022Z,10.10
2023-04-16T03:48:18.206Z,10.60
2023-04-16T03:50:48.469Z,9.38
2023-04-16T03:53:15.841Z,10.85
2023-04-16T03:55:43.392Z,8.35
2023-04-16T03:58:10.660Z,16.02
2023-04-16T04:00:37.846Z,10.63
2023-04-16T04:03:05.124Z,11.32
2023-04-16T04:05:32.389Z,13.90
2023-04-16T04:07:59.596Z,13.38
2023-04-16T04:10:26.844Z,10.70
2023-04-16T04:12:54.043Z,14.80
2023-04-16T04:15:21.262Z,9.27
2023-04-16T04:17:48.422Z,12.93
2023-04-16T04:20:16.229Z,9.90
2023-04-16T04:22:43.427Z,12.07
2023-04-16T04:25:11.348Z,10.57
2023-04-16T04:27:38.576Z,15.40
2023-04-16T04:30:06.232Z,13.20
2023-04-16T04:32:33.449Z,13.75
2023-04-16T04:35:02.055Z,12.00
2023-04-16T04:37:29.535Z,15.68
2023-04-16T04:39:56.854Z,12.68
2023-04-16T04:42:24.072Z,14.70
2023-04-16T04:44:51.261Z,17.83
2023-04-16T04:47:18.467Z,14.55
2023-04-16T04:49:45.846Z,16.73
2023-04-16T04:52:13.085Z,14.90
2023-04-16T04:54:41.752Z,13.77
2023-04-16T04:57:09.447Z,14.02
2023-04-16T04:59:36.713Z,17.65
2023-04-16T05:02:03.952Z,17.98
2023-04-16T05:04:31.489Z,18.85
2023-04-16T05:06:58.668Z,20.52
2023-04-16T05:09:25.800Z,19.55
2023-04-16T05:11:52.994Z,19.67
2023-04-16T05:14:20.248Z,17.55
2023-04-16T05:16:47.490Z,16.42
2023-04-16T05:19:14.690Z,19.80
2023-04-16T05:21:41.862Z,19.67
2023-04-16T05:24:09.048Z,19.45
2023-04-16T05:26:36.353Z,23.58
2023-04-16T05:29:03.519Z,27.85
2023-04-16T05:31:30.807Z,21.90
2023-04-16T05:33:57.945Z,23.85
2023-04-16T05:36:25.139Z,26.02
2023-04-16T05:38:52.293Z,24.30
2023-04-16T05:41:19.406Z,26.08
2023-04-16T05:43:46.635Z,26.13
2023-04-16T05:46:13.895Z,24.58
2023-04-16T05:48:41.080Z,24.05
2023-04-16T05:51:08.263Z,25.15
2023-04-16T05:53:35.592Z,27.60
2023-04-16T05:56:02.814Z,26.40
2023-04-16T05:58:30.006Z,18.77
2023-04-16T06:00:57.196Z,27.85
2023-04-16T06:03:24.511Z,25.02
2023-04-16T06:05:51.805Z,29.95
2023-04-16T06:08:19.080Z,24.80
2023-04-16T06:10:47.125Z,23.17
2023-04-16T06:13:14.396Z,21.83
2023-04-16T06:15:41.881Z,19.83
2023-04-16T06:18:09.132Z,19.48
2023-04-16T06:20:36.785Z,21.13
2023-04-16T06:23:03.889Z,26.13
2023-04-16T06:25:31.071Z,24.60
2023-04-16T06:27:58.275Z,21.63
2023-04-16T06:30:25.598Z,23.83
2023-04-16T06:32:52.906Z,24.98
2023-04-16T06:35:20.243Z,22.92
2023-04-16T06:37:47.655Z,19.23
2023-04-16T06:40:14.808Z,21.15
2023-04-16T06:42:43.571Z,23.20
2023-04-16T06:45:12.720Z,19.10
2023-04-16T06:47:39.916Z,18.63
2023-04-16T06:50:07.585Z,18.15
2023-04-16T06:52:34.917Z,21.85
2023-04-16T06:55:02.525Z,21.75
2023-04-16T06:57:29.685Z,18.67
2023-04-16T06:59:56.997Z,17.48
2023-04-16T07:02:24.881Z,16.60
2023-04-16T07:04:52.471Z,18.33
2023-04-16T07:07:19.662Z,16.50
2023-04-16T07:09:46.873Z,17.20
2023-04-16T07:12:14.283Z,17.40
2023-04-16T07:14:41.944Z,19.75
2023-04-16T07:17:09.174Z,17.50
2023-04-16T07:19:37.091Z,15.32
2023-04-16T07:22:04.486Z,15.43
2023-04-16T07:24:32.311Z,18.20
2023-04-16T07:26:59.544Z,19.00
2023-04-16T07:29:26.692Z,18.60
2023-04-16T07:31:54.056Z,14.90
2023-04-16T07:34:21.434Z,21.35
2023-04-16T07:36:48.580Z,20.67
2023-04-16T07:39:15.953Z,14.88
2023-04-16T07:41:43.974Z,17.60
2023-04-16T07:44:11.199Z,17.58
2023-04-16T07:46:46.338Z,17.10
2023-04-16T07:49:14.800Z,16.33
2023-04-16T07:51:42.003Z,18.48
2023-04-16T07:54:09.173Z,14.47
2023-04-16T07:56:36.626Z,15.13
2023-04-16T07:59:18.413Z,15.55
2023-04-16T08:01:49.784Z,15.43
2023-04-16T08:04:23.001Z,15.55
2023-04-16T08:06:51.354Z,14.70
2023-04-16T08:09:20.074Z,14.05
2023-04-16T08:11:49.144Z,16.70
2023-04-16T08:14:17.514Z,13.50
2023-04-16T08:16:44.894Z,13.07
2023-04-16T08:19:12.320Z,13.70
2023-04-16T08:21:39.714Z,18.98
2023-04-16T08:24:06.937Z,17.00
2023-04-16T08:26:34.424Z,13.85
2023-04-16T08:29:01.532Z,17.42
2023-04-16T08:31:28.745Z,16.30
2023-04-16T08:33:55.913Z,17.30
2023-04-16T08:36:23.101Z,13.80
2023-04-16T08:38:52.178Z,12.07
2023-04-16T08:41:19.456Z,14.18
2023-04-16T08:43:49.469Z,13.10
2023-04-16T08:46:18.009Z,13.43
2023-04-16T08:48:46.978Z,12.88
2023-04-16T08:51:15.243Z,12.63
2023-04-16T08:54:00.637Z,11.90
2023-04-16T08:56:28.142Z,11.90
2023-04-16T08:58:55.811Z,10.55
2023-04-16T09:01:23.097Z,12.25
2023-04-16T09:03:50.697Z,12.02
2023-04-16T09:06:18.484Z,11.90
2023-04-16T09:08:48.915Z,13.20
2023-04-16T09:11:18.774Z,10.10
2023-04-16T09:13:46.919Z,10.68
2023-04-16T09:16:14.714Z,11.50
2023-04-16T09:18:42.213Z,10.98
2023-04-16T09:21:11.273Z,10.97
2023-04-16T09:23:39.019Z,10.85
2023-04-16T09:26:06.732Z,10.68
2023-04-16T09:28:44.715Z,11.82
2023-04-16T09:31:13.728Z,9.20
2023-04-16T09:33:41.126Z,10.50
2023-04-16T09:36:08.381Z,12.30
2023-04-16T09:38:54.513Z,8.65
2023-04-16T09:41:30.014Z,8.10
2023-04-16T09:43:57.582Z,10.35
2023-04-16T09:46:25.765Z,10.47
2023-04-16T09:48:53.049Z,8.43
2023-04-16T09:51:20.418Z,8.60
2023-04-16T09:53:47.811Z,7.75
2023-04-16T09:56:15.106Z,7.78
2023-04-16T09:58:42.323Z,10.97
2023-04-16T10:01:10.801Z,8.60
2023-04-16T10:03:39.167Z,8.20
2023-04-16T10:06:14.839Z,6.65
2023-04-16T10:08:45.965Z,7.22
2023-04-16T10:11:14.398Z,8.43
2023-04-16T10:13:41.658Z,7.32
2023-04-16T10:16:09.084Z,7.90
2023-04-16T10:18:43.416Z,11.05
2023-04-16T10:21:15.322Z,11.38
2023-04-16T10:23:43.076Z,8.07
2023-04-16T10:26:10.536Z,7.75
2023-04-16T10:28:37.754Z,9.23
2023-04-16T10:31:06.317Z,7.15
2023-04-16T10:33:34.630Z,9.27
2023-04-16T10:36:10.813Z,7.97
2023-04-16T10:38:46.881Z,9.73
2023-04-16T10:41:14.658Z,8.68
2023-04-16T10:43:43.620Z,8.60
2023-04-16T10:46:27.086Z,7.38
2023-04-16T10:48:55.742Z,8.10
2023-04-16T10:51:27.796Z,9.63
2023-04-16T10:53:56.314Z,9.57
2023-04-16T10:56:24.317Z,7.80
2023-04-16T10:58:53.918Z,8.93
2023-04-16T11:01:27.232Z,8.23
2023-04-16T11:03:54.551Z,7.22
2023-04-16T11:06:26.662Z,9.27
2023-04-16T11:09:08.511Z,8.32
2023-04-16T11:11:39.634Z,8.90
2023-04-16T11:14:07.440Z,9.73
2023-04-16T11:16:34.611Z,7.97
2023-04-16T11:19:01.846Z,8.27
2023-04-16T11:21:29.311Z,8.95
2023-04-16T11:23:58.450Z,8.23
2023-04-16T11:26:27.286Z,9.33
2023-04-16T11:28:55.825Z,8.90
2023-04-16T11:31:23.665Z,9.98
2023-04-16T11:33:51.532Z,11.05
2023-04-16T11:36:18.708Z,10.13
2023-04-16T11:38:46.860Z,10.13
2023-04-16T11:41:19.879Z,10.80
2023-04-16T11:43:47.017Z,11.55
2023-04-16T11:46:26.988Z,11.90
2023-04-16T11:48:56.084Z,15.13
2023-04-16T11:51:23.847Z,11.17
2023-04-16T11:53:55.018Z,12.98
2023-04-16T11:56:35.362Z,12.65
2023-04-16T11:59:13.332Z,10.48
2023-04-16T12:01:41.640Z,13.27
2023-04-16T12:04:09.601Z,12.77
2023-04-16T12:06:37.099Z,13.23
2023-04-16T12:09:23.719Z,14.70
2023-04-16T12:11:50.878Z,15.68
2023-04-16T12:14:18.287Z,15.15
2023-04-16T12:16:45.589Z,16.50
2023-04-16T12:19:13.565Z,13.30
2023-04-16T12:21:40.897Z,15.57
2023-04-16T12:24:08.764Z,19.58
2023-04-16T12:26:40.562Z,16.33
2023-04-16T12:29:24.149Z,14.60
2023-04-16T12:31:51.994Z,15.25
2023-04-16T12:34:20.418Z,20.17
2023-04-16T12:36:48.023Z,15.10
2023-04-16T12:39:15.935Z,15.25
2023-04-16T12:41:44.774Z,18.17
2023-04-16T12:44:13.189Z,16.58
2023-04-16T12:46:41.332Z,15.50
2023-04-16T12:49:09.405Z,17.40
2023-04-16T12:51:37.126Z,17.88
2023-04-16T12:54:05.537Z,16.83
2023-04-16T12:56:32.716Z,20.27
2023-04-16T12:58:59.976Z,19.20
2023-04-16T13:01:27.190Z,16.95
2023-04-16T13:03:54.575Z,12.43
2023-04-16T13:06:21.889Z,13.83
2023-04-16T13:08:49.112Z,15.73
2023-04-16T13:11:19.128Z,15.07
2023-04-16T13:13:46.318Z,16.23
2023-04-16T13:16:13.543Z,14.02
2023-04-16T13:18:42.160Z,18.97
2023-04-16T13:21:09.451Z,31.88
2023-04-16T13:23:36.748Z,39.45
2023-04-16T13:26:04.059Z,33.08
2023-04-16T13:28:31.402Z,20.13
2023-04-16T13:30:58.918Z,18.63
2023-04-16T13:33:26.684Z,11.93
2023-04-16T13:35:53.879Z,17.05
2023-04-16T13:38:21.192Z,15.82
2023-04-16T13:40:48.421Z,35.80
2023-04-16T13:43:17.531Z,20.27
2023-04-16T13:45:44.694Z,15.38
2023-04-16T13:48:11.934Z,55.45
2023-04-16T13:50:39.135Z,13.80
2023-04-16T13:53:06.387Z,18.80
2023-04-16T13:55:33.600Z,13.67
2023-04-16T13:58:01.034Z,17.13
2023-04-16T14:00:28.267Z,15.98
2023-04-16T14:02:55.614Z,12.57
2023-04-16T14:05:25.142Z,31.83
2023-04-16T14:07:53.849Z,19.67
2023-04-16T14:10:21.248Z,18.58
2023-04-16T14:12:48.453Z,13.50
2023-04-16T14:15:15.868Z,14.35
2023-04-16T14:17:44.147Z,27.63
2023-04-16T14:20:14.852Z,46.70
2023-04-16T14:22:43.905Z,27.90
2023-04-16T14:25:11.124Z,24.95
2023-04-16T14:27:38.384Z,34.47
2023-04-16T14:30:06.338Z,29.50
2023-04-16T14:32:33.561Z,63.80
2023-04-16T14:35:00.840Z,19.88
2023-04-16T14:37:28.114Z,22.95
2023-04-16T14:39:55.552Z,17.42
2023-04-16T14:42:22.766Z,16.05
2023-04-16T14:44:50.062Z,15.60
2023-04-16T14:47:17.237Z,13.70
2023-04-16T14:49:44.387Z,16.50
2023-04-16T14:52:11.596Z,21.20
2023-04-16T14:54:38.734Z,18.05
2023-04-16T14:57:05.950Z,20.97
2023-04-16T14:59:33.166Z,39.95
2023-04-16T15:02:00.470Z,17.80
2023-04-16T15:04:28.066Z,14.48
2023-04-16T15:06:58.954Z,18.25
2023-04-16T15:09:27.428Z,18.07
2023-04-16T15:11:55.194Z,16.42
2023-04-16T15:14:22.383Z,11.25
2023-04-16T15:16:49.591Z,15.70
2023-04-16T15:19:17.511Z,19.90
2023-04-16T15:21:46.056Z,18.07
2023-04-16T15:24:14.695Z,15.45
2023-04-16T15:26:42.144Z,13.63
2023-04-16T15:29:09.377Z,20.83
2023-04-16T15:31:36.540Z,18.17
2023-04-16T15:34:03.771Z,17.60
2023-04-16T15:36:31.760Z,19.65
2023-04-16T15:38:59.010Z,17.00
2023-04-16T15:41:26.324Z,17.75
2023-04-16T15:43:53.481Z,14.27
2023-04-16T15:46:21.093Z,19.53
2023-04-16T15:48:48.417Z,22.98
2023-04-16T15:51:15.847Z,19.27
2023-04-16T15:53:44.808Z,21.63
2023-04-16T15:56:12.063Z,16.02
2023-04-16T15:58:39.792Z,17.47
2023-04-16T16:01:06.967Z,18.15
2023-04-16T16:03:35.942Z,14.20
2023-04-16T16:06:07.687Z,17.05
2023-04-16T16:08:35.821Z,17.25
2023-04-16T16:11:03.540Z,13.83
2023-04-16T16:13:31.089Z,13.98
2023-04-16T16:15:59.599Z,16.15
2023-04-16T16:18:26.739Z,11.73
2023-04-16T16:20:57.100Z,14.65
2023-04-16T16:23:24.390Z,13.70
2023-04-16T16:25:52.318Z,16.30
2023-04-16T16:28:20.581Z,16.10
2023-04-16T16:30:48.011Z,13.43
2023-04-16T16:33:16.316Z,14.07
2023-04-16T16:35:43.546Z,15.57
2023-04-16T16:38:10.870Z,15.65
2023-04-16T16:40:40.397Z,21.70
2023-04-16T16:43:08.190Z,16.50
2023-04-16T16:45:35.519Z,19.77
2023-04-16T16:48:03.935Z,18.90
2023-04-16T16:50:34.230Z,16.48
2023-04-16T16:53:02.062Z,14.93
2023-04-16T16:55:29.295Z,15.60
2023-04-16T16:57:56.487Z,17.80
2023-04-16T17:00:23.785Z,15.70
2023-04-16T17:02:52.095Z,17.70
2023-04-16T17:05:20.593Z,17.58
2023-04-16T17:07:47.810Z,16.45
2023-04-16T17:10:20.226Z,19.17
2023-04-16T17:12:51.381Z,18.90
2023-04-16T17:15:21.148Z,19.17
2023-04-16T17:17:49.124Z,18.63
2023-04-16T17:20:16.493Z,17.35
2023-04-16T17:22:44.089Z,17.85
2023-04-16T17:25:11.493Z,18.17
2023-04-16T17:27:41.367Z,19.58
2023-04-16T17:30:09.102Z,17.98
2023-04-16T17:32:36.540Z,17.88
2023-04-16T17:35:04.506Z,20.63
2023-04-16T17:37:31.900Z,19.80
2023-04-16T17:39:59.159Z,23.60
2023-04-16T17:42:26.454Z,19.00
2023-04-16T17:44:53.615Z,22.60
2023-04-16T17:47:21.065Z,22.70
2023-04-16T17:49:48.676Z,19.53
2023-04-16T17:52:16.143Z,19.55
2023-04-16T17:54:45.562Z,21.13
2023-04-16T17:57:12.886Z,19.08
2023-04-16T17:59:40.212Z,22.77
2023-04-16T18:02:09.141Z,21.07
2023-04-16T18:04:36.518Z,21.77
2023-04-16T18:07:03.864Z,21.60
2023-04-16T18:09:31.854Z,22.23
2023-04-16T18:11:58.967Z,16.95
2023-04-16T18:14:26.349Z,20.67
2023-04-16T18:16:53.649Z,21.17
2023-04-16T18:19:21.092Z,19.75
2023-04-16T18:21:48.285Z,21.02
2023-04-16T18:24:16.095Z,18.98
2023-04-16T18:26:46.644Z,25.23
2023-04-16T18:29:15.185Z,23.50
2023-04-16T18:31:43.029Z,26.83
2023-04-16T18:34:11.435Z,26.40
2023-04-16T18:36:38.758Z,21.88
